sensor_id;sensor_type;location;lat;lon;timestamp;temperature;humidity
14170;DHT22;63889;50.596;8.690;2022-11-18T00:02:10;9.60;99.90
14170;DHT22;63889;50.596;8.690;2022-11-18T00:04:35;9.60;99.90
14170;DHT22;63889;50.596;8.690;2022-11-18T00:07:01;9.70;99.90
14170;DHT22;63889;50.596;8.690;2022-11-18T00:09:26;9.70;99.90
14170;DHT22;63889;50.596;8.690;2022-11-18T00:11:52;9.80;99.90
14170;DHT22;63889;50.596;8.690;2022-11-18T00:14:36;9.80;99.90
14170;DHT22;63889;50.596;8.690;2022-11-18T00:17:03;9.90;99.90
14170;DHT22;63889;50.596;8.690;2022-11-18T00:19:32;9.90;99.90
14170;DHT22;63889;50.596;8.690;2022-11-18T00:21:58;9.80;99.90
14170;DHT22;63889;50.596;8.690;2022-11-18T00:24:25;9.80;99.90
14170;DHT22;63889;50.596;8.690;2022-11-18T00:26:51;9.90;99.90
14170;DHT22;63889;50.596;8.690;2022-11-18T00:29:17;9.90;99.90
14170;DHT22;63889;50.596;8.690;2022-11-18T00:31:43;10.00;99.90
14170;DHT22;63889;50.596;8.690;2022-11-18T00:34:14;10.00;99.90
14170;DHT22;63889;50.596;8.690;2022-11-18T00:36:41;10.00;99.90
14170;DHT22;63889;50.596;8.690;2022-11-18T00:39:07;10.00;99.90
14170;DHT22;63889;50.596;8.690;2022-11-18T00:41:34;10.00;99.90
14170;DHT22;63889;50.596;8.690;2022-11-18T00:44:18;10.00;99.90
14170;DHT22;63889;50.596;8.690;2022-11-18T00:46:44;9.90;99.90
14170;DHT22;63889;50.596;8.690;2022-11-18T00:49:09;9.90;99.90
14170;DHT22;63889;50.596;8.690;2022-11-18T00:51:35;9.90;99.90
14170;DHT22;63889;50.596;8.690;2022-11-18T00:54:01;9.80;99.90
14170;DHT22;63889;50.596;8.690;2022-11-18T00:56:27;9.70;99.90
14170;DHT22;63889;50.596;8.690;2022-11-18T00:58:53;9.70;99.90
14170;DHT22;63889;50.596;8.690;2022-11-18T01:01:18;9.70;99.90
14170;DHT22;63889;50.596;8.690;2022-11-18T01:03:44;9.50;99.90
14170;DHT22;63889;50.596;8.690;2022-11-18T01:06:09;9.60;99.90
14170;DHT22;63889;50.596;8.690;2022-11-18T01:08:35;9.50;99.90
14170;DHT22;63889;50.596;8.690;2022-11-18T01:11:00;9.50;99.90
14170;DHT22;63889;50.596;8.690;2022-11-18T01:13:52;9.50;99.90
14170;DHT22;63889;50.596;8.690;2022-11-18T01:16:24;9.50;99.90
14170;DHT22;63889;50.596;8.690;2022-11-18T01:18:49;9.50;99.90
14170;DHT22;63889;50.596;8.690;2022-11-18T01:21:16;9.40;99.90
14170;DHT22;63889;50.596;8.690;2022-11-18T01:23:42;9.40;99.90
14170;DHT22;63889;50.596;8.690;2022-11-18T01:26:10;9.50;99.90
14170;DHT22;63889;50.596;8.690;2022-11-18T01:28:36;9.50;99.90
14170;DHT22;63889;50.596;8.690;2022-11-18T01:31:07;9.50;99.90
14170;DHT22;63889;50.596;8.690;2022-11-18T01:33:33;9.40;99.90
14170;DHT22;63889;50.596;8.690;2022-11-18T01:35:58;9.40;99.90
14170;DHT22;63889;50.596;8.690;2022-11-18T01:38:24;9.40;99.90
14170;DHT22;63889;50.596;8.690;2022-11-18T01:40:50;9.50;99.90
14170;DHT22;63889;50.596;8.690;2022-11-18T01:43:18;9.50;99.90
14170;DHT22;63889;50.596;8.690;2022-11-18T01:45:46;9.40;99.90
14170;DHT22;63889;50.596;8.690;2022-11-18T01:48:17;9.40;99.90
14170;DHT22;63889;50.596;8.690;2022-11-18T01:51:01;9.40;99.90
14170;DHT22;63889;50.596;8.690;2022-11-18T01:53:32;9.60;99.90
14170;DHT22;63889;50.596;8.690;2022-11-18T01:56:01;9.70;99.90
14170;DHT22;63889;50.596;8.690;2022-11-18T02:01:02;9.80;99.90
14170;DHT22;63889;50.596;8.690;2022-11-18T02:03:28;9.70;99.90
14170;DHT22;63889;50.596;8.690;2022-11-18T02:05:54;9.70;99.90
14170;DHT22;63889;50.596;8.690;2022-11-18T02:08:21;9.80;99.90
14170;DHT22;63889;50.596;8.690;2022-11-18T02:10:47;9.90;99.90
14170;DHT22;63889;50.596;8.690;2022-11-18T02:13:13;9.80;99.90
14170;DHT22;63889;50.596;8.690;2022-11-18T02:18:36;9.80;99.90
14170;DHT22;63889;50.596;8.690;2022-11-18T02:21:52;9.80;99.90
14170;DHT22;63889;50.596;8.690;2022-11-18T02:29:59;9.80;99.90
14170;DHT22;63889;50.596;8.690;2022-11-18T02:32:37;9.80;99.90
14170;DHT22;63889;50.596;8.690;2022-11-18T02:35:12;9.90;99.90
14170;DHT22;63889;50.596;8.690;2022-11-18T02:40:08;9.90;99.90
14170;DHT22;63889;50.596;8.690;2022-11-18T02:42:37;9.90;99.90
14170;DHT22;63889;50.596;8.690;2022-11-18T02:45:11;9.90;99.90
14170;DHT22;63889;50.596;8.690;2022-11-18T02:47:39;9.80;99.90
14170;DHT22;63889;50.596;8.690;2022-11-18T02:50:10;9.60;99.90
14170;DHT22;63889;50.596;8.690;2022-11-18T02:52:37;9.70;99.90
14170;DHT22;63889;50.596;8.690;2022-11-18T02:55:07;9.70;99.90
14170;DHT22;63889;50.596;8.690;2022-11-18T02:57:35;9.80;99.90
14170;DHT22;63889;50.596;8.690;2022-11-18T03:00:01;9.80;99.90
14170;DHT22;63889;50.596;8.690;2022-11-18T03:02:27;9.80;99.90
14170;DHT22;63889;50.596;8.690;2022-11-18T03:04:55;10.00;99.90
14170;DHT22;63889;50.596;8.690;2022-11-18T03:07:28;10.00;99.90
14170;DHT22;63889;50.596;8.690;2022-11-18T03:09:56;10.10;99.90
14170;DHT22;63889;50.596;8.690;2022-11-18T03:15:39;10.10;99.90
14170;DHT22;63889;50.596;8.690;2022-11-18T03:21:19;10.00;99.90
14170;DHT22;63889;50.596;8.690;2022-11-18T03:23:54;9.90;99.90
14170;DHT22;63889;50.596;8.690;2022-11-18T03:26:26;9.90;99.90
14170;DHT22;63889;50.596;8.690;2022-11-18T03:29:01;9.90;99.90
14170;DHT22;63889;50.596;8.690;2022-11-18T03:31:43;10.00;99.90
14170;DHT22;63889;50.596;8.690;2022-11-18T03:34:20;10.10;99.90
14170;DHT22;63889;50.596;8.690;2022-11-18T03:36:54;10.10;99.90
14170;DHT22;63889;50.596;8.690;2022-11-18T03:39:21;10.10;99.90
14170;DHT22;63889;50.596;8.690;2022-11-18T03:42:27;10.10;99.90
14170;DHT22;63889;50.596;8.690;2022-11-18T03:44:54;10.00;99.90
14170;DHT22;63889;50.596;8.690;2022-11-18T03:47:34;10.10;99.90
14170;DHT22;63889;50.596;8.690;2022-11-18T03:50:19;10.10;99.90
14170;DHT22;63889;50.596;8.690;2022-11-18T03:52:47;10.10;99.90
14170;DHT22;63889;50.596;8.690;2022-11-18T03:55:17;10.10;99.90
14170;DHT22;63889;50.596;8.690;2022-11-18T04:00:16;10.10;99.90
14170;DHT22;63889;50.596;8.690;2022-11-18T04:02:45;10.10;99.90
14170;DHT22;63889;50.596;8.690;2022-11-18T04:05:12;10.10;99.90
14170;DHT22;63889;50.596;8.690;2022-11-18T04:07:57;10.00;99.90
14170;DHT22;63889;50.596;8.690;2022-11-18T04:15:20;10.00;99.90
14170;DHT22;63889;50.596;8.690;2022-11-18T04:17:46;10.10;99.90
14170;DHT22;63889;50.596;8.690;2022-11-18T04:20:17;10.00;99.90
14170;DHT22;63889;50.596;8.690;2022-11-18T04:22:43;10.10;99.90
14170;DHT22;63889;50.596;8.690;2022-11-18T04:25:08;10.00;99.90
14170;DHT22;63889;50.596;8.690;2022-11-18T04:27:34;10.00;99.90
14170;DHT22;63889;50.596;8.690;2022-11-18T04:29:59;10.00;99.90
14170;DHT22;63889;50.596;8.690;2022-11-18T04:32:25;10.00;99.90
14170;DHT22;63889;50.596;8.690;2022-11-18T04:34:50;10.10;99.90
14170;DHT22;63889;50.596;8.690;2022-11-18T04:37:16;10.10;99.90
14170;DHT22;63889;50.596;8.690;2022-11-18T04:39:41;10.00;99.90
14170;DHT22;63889;50.596;8.690;2022-11-18T04:42:07;9.70;99.90
14170;DHT22;63889;50.596;8.690;2022-11-18T04:44:33;9.60;99.90
14170;DHT22;63889;50.596;8.690;2022-11-18T04:47:03;9.60;99.90
14170;DHT22;63889;50.596;8.690;2022-11-18T04:49:29;9.70;99.90
14170;DHT22;63889;50.596;8.690;2022-11-18T04:51:56;9.70;99.90
14170;DHT22;63889;50.596;8.690;2022-11-18T04:54:22;9.70;99.90
14170;DHT22;63889;50.596;8.690;2022-11-18T04:56:48;9.80;99.90
14170;DHT22;63889;50.596;8.690;2022-11-18T04:59:19;9.90;99.90
14170;DHT22;63889;50.596;8.690;2022-11-18T05:01:45;9.90;99.90
14170;DHT22;63889;50.596;8.690;2022-11-18T05:04:16;9.90;99.90
14170;DHT22;63889;50.596;8.690;2022-11-18T05:06:42;10.00;99.90
14170;DHT22;63889;50.596;8.690;2022-11-18T05:09:09;10.00;99.90
14170;DHT22;63889;50.596;8.690;2022-11-18T05:11:34;10.00;99.90
14170;DHT22;63889;50.596;8.690;2022-11-18T05:14:18;10.00;99.90
14170;DHT22;63889;50.596;8.690;2022-11-18T05:16:44;10.00;99.90
14170;DHT22;63889;50.596;8.690;2022-11-18T05:19:09;10.00;99.90
14170;DHT22;63889;50.596;8.690;2022-11-18T05:21:35;9.90;99.90
14170;DHT22;63889;50.596;8.690;2022-11-18T05:24:02;9.70;99.90
14170;DHT22;63889;50.596;8.690;2022-11-18T05:26:28;9.70;99.90
14170;DHT22;63889;50.596;8.690;2022-11-18T05:28:55;9.60;99.90
14170;DHT22;63889;50.596;8.690;2022-11-18T05:31:21;9.70;99.90
14170;DHT22;63889;50.596;8.690;2022-11-18T05:33:46;9.50;99.90
14170;DHT22;63889;50.596;8.690;2022-11-18T05:36:15;9.40;99.90
14170;DHT22;63889;50.596;8.690;2022-11-18T05:38:41;9.40;99.90
14170;DHT22;63889;50.596;8.690;2022-11-18T05:41:08;9.50;99.90
14170;DHT22;63889;50.596;8.690;2022-11-18T05:43:34;9.50;99.90
14170;DHT22;63889;50.596;8.690;2022-11-18T05:46:01;9.60;99.90
14170;DHT22;63889;50.596;8.690;2022-11-18T05:48:26;9.70;99.90
14170;DHT22;63889;50.596;8.690;2022-11-18T05:50:53;9.80;99.90
14170;DHT22;63889;50.596;8.690;2022-11-18T05:53:22;9.90;99.90
14170;DHT22;63889;50.596;8.690;2022-11-18T05:56:17;9.90;99.90
14170;DHT22;63889;50.596;8.690;2022-11-18T05:58:44;10.00;99.90
14170;DHT22;63889;50.596;8.690;2022-11-18T06:01:11;10.00;99.90
14170;DHT22;63889;50.596;8.690;2022-11-18T06:03:39;10.00;99.90
14170;DHT22;63889;50.596;8.690;2022-11-18T06:06:08;10.00;99.90
14170;DHT22;63889;50.596;8.690;2022-11-18T06:08:41;10.00;99.90
14170;DHT22;63889;50.596;8.690;2022-11-18T06:11:11;9.90;99.90
14170;DHT22;63889;50.596;8.690;2022-11-18T06:13:47;9.90;99.90
14170;DHT22;63889;50.596;8.690;2022-11-18T06:16:17;9.90;99.90
14170;DHT22;63889;50.596;8.690;2022-11-18T06:18:43;9.90;99.90
14170;DHT22;63889;50.596;8.690;2022-11-18T06:21:09;9.80;99.90
14170;DHT22;63889;50.596;8.690;2022-11-18T06:23:36;9.90;99.90
14170;DHT22;63889;50.596;8.690;2022-11-18T06:26:03;9.90;99.90
14170;DHT22;63889;50.596;8.690;2022-11-18T06:28:29;9.90;99.90
14170;DHT22;63889;50.596;8.690;2022-11-18T06:30:55;9.80;99.90
14170;DHT22;63889;50.596;8.690;2022-11-18T06:33:20;9.90;99.90
14170;DHT22;63889;50.596;8.690;2022-11-18T06:35:46;9.80;99.90
14170;DHT22;63889;50.596;8.690;2022-11-18T06:38:11;9.80;99.90
14170;DHT22;63889;50.596;8.690;2022-11-18T06:40:37;9.80;99.90
14170;DHT22;63889;50.596;8.690;2022-11-18T06:43:10;9.80;99.90
14170;DHT22;63889;50.596;8.690;2022-11-18T06:45:59;9.90;99.90
14170;DHT22;63889;50.596;8.690;2022-11-18T06:48:44;9.90;99.90
14170;DHT22;63889;50.596;8.690;2022-11-18T06:51:10;9.80;99.90
14170;DHT22;63889;50.596;8.690;2022-11-18T06:53:35;9.90;99.90
14170;DHT22;63889;50.596;8.690;2022-11-18T06:56:05;9.90;99.90
14170;DHT22;63889;50.596;8.690;2022-11-18T06:58:31;10.00;99.90
14170;DHT22;63889;50.596;8.690;2022-11-18T07:00:57;10.00;99.90
14170;DHT22;63889;50.596;8.690;2022-11-18T07:03:22;10.00;99.90
14170;DHT22;63889;50.596;8.690;2022-11-18T07:05:48;10.00;99.90
14170;DHT22;63889;50.596;8.690;2022-11-18T07:08:13;10.00;99.90
14170;DHT22;63889;50.596;8.690;2022-11-18T07:10:39;10.00;99.90
14170;DHT22;63889;50.596;8.690;2022-11-18T07:13:04;9.90;99.90
14170;DHT22;63889;50.596;8.690;2022-11-18T07:15:30;9.80;99.90
14170;DHT22;63889;50.596;8.690;2022-11-18T07:17:57;9.80;99.90
14170;DHT22;63889;50.596;8.690;2022-11-18T07:20:23;9.80;99.90
14170;DHT22;63889;50.596;8.690;2022-11-18T07:22:51;9.80;99.90
14170;DHT22;63889;50.596;8.690;2022-11-18T07:25:17;9.80;99.90
14170;DHT22;63889;50.596;8.690;2022-11-18T07:27:42;9.80;99.90
14170;DHT22;63889;50.596;8.690;2022-11-18T07:30:08;9.90;99.90
14170;DHT22;63889;50.596;8.690;2022-11-18T07:32:34;9.80;99.90
14170;DHT22;63889;50.596;8.690;2022-11-18T07:34:59;9.80;99.90
14170;DHT22;63889;50.596;8.690;2022-11-18T07:37:25;9.80;99.90
14170;DHT22;63889;50.596;8.690;2022-11-18T07:39:51;9.80;99.90
14170;DHT22;63889;50.596;8.690;2022-11-18T07:42:17;9.80;99.90
14170;DHT22;63889;50.596;8.690;2022-11-18T07:44:42;9.80;99.90
14170;DHT22;63889;50.596;8.690;2022-11-18T07:47:08;9.90;99.90
14170;DHT22;63889;50.596;8.690;2022-11-18T07:49:33;9.90;99.90
14170;DHT22;63889;50.596;8.690;2022-11-18T07:51:59;9.90;99.90
14170;DHT22;63889;50.596;8.690;2022-11-18T07:54:24;10.10;99.90
14170;DHT22;63889;50.596;8.690;2022-11-18T07:56:50;10.20;99.90
14170;DHT22;63889;50.596;8.690;2022-11-18T07:59:16;10.20;99.90
14170;DHT22;63889;50.596;8.690;2022-11-18T08:01:41;10.10;99.90
14170;DHT22;63889;50.596;8.690;2022-11-18T08:04:09;10.10;99.90
14170;DHT22;63889;50.596;8.690;2022-11-18T08:06:35;10.10;99.90
14170;DHT22;63889;50.596;8.690;2022-11-18T08:09:01;10.00;99.90
14170;DHT22;63889;50.596;8.690;2022-11-18T08:11:27;10.10;99.90
14170;DHT22;63889;50.596;8.690;2022-11-18T08:13:52;10.00;99.90
14170;DHT22;63889;50.596;8.690;2022-11-18T08:16:20;10.00;99.90
14170;DHT22;63889;50.596;8.690;2022-11-18T08:18:46;9.90;99.90
14170;DHT22;63889;50.596;8.690;2022-11-18T08:21:13;9.90;99.90
14170;DHT22;63889;50.596;8.690;2022-11-18T08:23:39;10.00;99.90
14170;DHT22;63889;50.596;8.690;2022-11-18T08:26:10;10.00;99.90
14170;DHT22;63889;50.596;8.690;2022-11-18T08:28:38;10.10;99.90
14170;DHT22;63889;50.596;8.690;2022-11-18T08:33:40;10.20;99.90
14170;DHT22;63889;50.596;8.690;2022-11-18T08:36:17;10.10;99.90
14170;DHT22;63889;50.596;8.690;2022-11-18T08:38:43;10.10;99.90
14170;DHT22;63889;50.596;8.690;2022-11-18T08:41:11;10.10;99.90
14170;DHT22;63889;50.596;8.690;2022-11-18T08:43:37;10.10;99.90
14170;DHT22;63889;50.596;8.690;2022-11-18T08:46:03;10.00;99.90
14170;DHT22;63889;50.596;8.690;2022-11-18T08:48:29;10.00;99.90
14170;DHT22;63889;50.596;8.690;2022-11-18T08:50:56;10.00;99.90
14170;DHT22;63889;50.596;8.690;2022-11-18T08:53:22;10.00;99.90
14170;DHT22;63889;50.596;8.690;2022-11-18T08:55:54;9.90;99.90
14170;DHT22;63889;50.596;8.690;2022-11-18T08:58:20;10.00;99.90
14170;DHT22;63889;50.596;8.690;2022-11-18T09:00:45;10.10;99.90
14170;DHT22;63889;50.596;8.690;2022-11-18T09:03:11;10.10;99.90
14170;DHT22;63889;50.596;8.690;2022-11-18T09:05:36;10.20;99.90
14170;DHT22;63889;50.596;8.690;2022-11-18T09:08:02;10.30;99.90
14170;DHT22;63889;50.596;8.690;2022-11-18T09:10:28;10.30;99.90
14170;DHT22;63889;50.596;8.690;2022-11-18T09:12:53;10.30;99.90
14170;DHT22;63889;50.596;8.690;2022-11-18T09:15:19;10.20;99.90
14170;DHT22;63889;50.596;8.690;2022-11-18T09:17:44;10.10;99.90
14170;DHT22;63889;50.596;8.690;2022-11-18T09:20:10;10.20;99.90
14170;DHT22;63889;50.596;8.690;2022-11-18T09:22:36;10.10;99.90
14170;DHT22;63889;50.596;8.690;2022-11-18T09:25:02;10.20;99.90
14170;DHT22;63889;50.596;8.690;2022-11-18T09:27:27;10.20;99.90
14170;DHT22;63889;50.596;8.690;2022-11-18T09:29:53;10.30;99.90
14170;DHT22;63889;50.596;8.690;2022-11-18T09:32:18;10.30;99.90
14170;DHT22;63889;50.596;8.690;2022-11-18T09:34:44;10.30;99.90
14170;DHT22;63889;50.596;8.690;2022-11-18T09:37:09;10.40;99.90
14170;DHT22;63889;50.596;8.690;2022-11-18T09:39:36;10.40;99.90
14170;DHT22;63889;50.596;8.690;2022-11-18T09:42:19;10.40;99.90
14170;DHT22;63889;50.596;8.690;2022-11-18T09:45:10;10.40;99.90
14170;DHT22;63889;50.596;8.690;2022-11-18T09:47:37;10.50;99.90
14170;DHT22;63889;50.596;8.690;2022-11-18T09:50:14;10.60;99.90
14170;DHT22;63889;50.596;8.690;2022-11-18T09:53:01;10.60;99.90
14170;DHT22;63889;50.596;8.690;2022-11-18T09:55:28;10.70;99.90
14170;DHT22;63889;50.596;8.690;2022-11-18T09:57:56;10.80;99.90
14170;DHT22;63889;50.596;8.690;2022-11-18T10:00:28;10.80;99.90
14170;DHT22;63889;50.596;8.690;2022-11-18T10:03:00;10.80;99.90
14170;DHT22;63889;50.596;8.690;2022-11-18T10:05:28;10.80;99.90
14170;DHT22;63889;50.596;8.690;2022-11-18T10:10:59;11.00;99.90
14170;DHT22;63889;50.596;8.690;2022-11-18T10:16:07;11.00;99.90
14170;DHT22;63889;50.596;8.690;2022-11-18T10:21:46;11.40;99.90
14170;DHT22;63889;50.596;8.690;2022-11-18T10:24:19;11.50;99.90
14170;DHT22;63889;50.596;8.690;2022-11-18T10:26:46;11.70;99.90
14170;DHT22;63889;50.596;8.690;2022-11-18T10:29:11;11.80;99.90
14170;DHT22;63889;50.596;8.690;2022-11-18T10:31:39;11.70;99.90
14170;DHT22;63889;50.596;8.690;2022-11-18T10:34:05;11.80;99.90
14170;DHT22;63889;50.596;8.690;2022-11-18T10:36:32;11.80;99.90
14170;DHT22;63889;50.596;8.690;2022-11-18T10:39:15;11.70;99.90
14170;DHT22;63889;50.596;8.690;2022-11-18T10:41:45;11.80;99.90
14170;DHT22;63889;50.596;8.690;2022-11-18T10:44:30;11.80;99.90
14170;DHT22;63889;50.596;8.690;2022-11-18T10:49:49;11.90;99.90
14170;DHT22;63889;50.596;8.690;2022-11-18T10:52:16;12.00;99.90
14170;DHT22;63889;50.596;8.690;2022-11-18T10:54:42;11.90;99.90
14170;DHT22;63889;50.596;8.690;2022-11-18T10:57:21;11.90;99.90
14170;DHT22;63889;50.596;8.690;2022-11-18T10:59:55;11.90;99.90
14170;DHT22;63889;50.596;8.690;2022-11-18T11:02:32;11.80;99.90
14170;DHT22;63889;50.596;8.690;2022-11-18T11:05:02;11.80;99.90
14170;DHT22;63889;50.596;8.690;2022-11-18T11:07:30;11.80;99.90
14170;DHT22;63889;50.596;8.690;2022-11-18T11:10:20;11.70;99.90
14170;DHT22;63889;50.596;8.690;2022-11-18T11:13:10;11.80;99.90
14170;DHT22;63889;50.596;8.690;2022-11-18T11:15:40;11.80;99.90
14170;DHT22;63889;50.596;8.690;2022-11-18T11:18:27;11.70;99.90
14170;DHT22;63889;50.596;8.690;2022-11-18T11:21:19;11.80;99.90
14170;DHT22;63889;50.596;8.690;2022-11-18T11:23:45;11.80;99.90
14170;DHT22;63889;50.596;8.690;2022-11-18T11:26:40;11.80;99.90
14170;DHT22;63889;50.596;8.690;2022-11-18T11:32:42;11.80;99.90
14170;DHT22;63889;50.596;8.690;2022-11-18T11:35:21;11.80;99.90
14170;DHT22;63889;50.596;8.690;2022-11-18T11:41:05;11.90;99.90
14170;DHT22;63889;50.596;8.690;2022-11-18T11:43:56;12.00;99.90
14170;DHT22;63889;50.596;8.690;2022-11-18T11:46:47;12.00;99.90
14170;DHT22;63889;50.596;8.690;2022-11-18T11:49:59;12.00;99.90
14170;DHT22;63889;50.596;8.690;2022-11-18T11:52:52;11.90;99.90
14170;DHT22;63889;50.596;8.690;2022-11-18T12:00:45;11.90;99.90
14170;DHT22;63889;50.596;8.690;2022-11-18T12:03:45;11.90;99.90
14170;DHT22;63889;50.596;8.690;2022-11-18T12:06:12;11.80;99.90
14170;DHT22;63889;50.596;8.690;2022-11-18T12:08:47;11.70;99.90
14170;DHT22;63889;50.596;8.690;2022-11-18T12:14:09;11.80;99.90
14170;DHT22;63889;50.596;8.690;2022-11-18T12:16:47;11.80;99.90
14170;DHT22;63889;50.596;8.690;2022-11-18T12:19:23;11.80;99.90
14170;DHT22;63889;50.596;8.690;2022-11-18T12:29:26;11.50;99.90
14170;DHT22;63889;50.596;8.690;2022-11-18T12:31:52;11.30;99.90
14170;DHT22;63889;50.596;8.690;2022-11-18T12:34:29;11.10;99.90
14170;DHT22;63889;50.596;8.690;2022-11-18T12:36:56;11.00;99.90
14170;DHT22;63889;50.596;8.690;2022-11-18T12:39:46;11.00;99.90
14170;DHT22;63889;50.596;8.690;2022-11-18T12:42:35;10.90;99.90
14170;DHT22;63889;50.596;8.690;2022-11-18T12:53:50;11.00;99.90
14170;DHT22;63889;50.596;8.690;2022-11-18T12:58:46;11.00;99.90
14170;DHT22;63889;50.596;8.690;2022-11-18T13:01:14;11.00;99.90
14170;DHT22;63889;50.596;8.690;2022-11-18T13:03:40;11.10;99.90
14170;DHT22;63889;50.596;8.690;2022-11-18T13:06:25;11.10;99.90
14170;DHT22;63889;50.596;8.690;2022-11-18T13:09:01;11.10;99.90
14170;DHT22;63889;50.596;8.690;2022-11-18T13:11:32;11.10;99.90
14170;DHT22;63889;50.596;8.690;2022-11-18T13:14:20;11.10;99.90
14170;DHT22;63889;50.596;8.690;2022-11-18T13:22:50;10.90;99.90
14170;DHT22;63889;50.596;8.690;2022-11-18T13:25:34;10.90;99.90
14170;DHT22;63889;50.596;8.690;2022-11-18T13:28:18;10.80;99.90
14170;DHT22;63889;50.596;8.690;2022-11-18T13:30:53;10.80;99.90
14170;DHT22;63889;50.596;8.690;2022-11-18T13:33:20;10.90;99.90
14170;DHT22;63889;50.596;8.690;2022-11-18T13:35:45;10.90;99.90
14170;DHT22;63889;50.596;8.690;2022-11-18T13:38:23;10.80;99.90
14170;DHT22;63889;50.596;8.690;2022-11-18T13:40:50;10.90;99.90
14170;DHT22;63889;50.596;8.690;2022-11-18T13:43:47;10.80;99.90
14170;DHT22;63889;50.596;8.690;2022-11-18T13:46:18;10.80;99.90
14170;DHT22;63889;50.596;8.690;2022-11-18T13:48:50;10.80;99.90
14170;DHT22;63889;50.596;8.690;2022-11-18T13:51:17;10.90;99.90
14170;DHT22;63889;50.596;8.690;2022-11-18T13:53:43;10.90;99.90
14170;DHT22;63889;50.596;8.690;2022-11-18T13:56:19;10.90;99.90
14170;DHT22;63889;50.596;8.690;2022-11-18T14:01:23;11.10;99.90
14170;DHT22;63889;50.596;8.690;2022-11-18T14:06:30;11.20;99.90
14170;DHT22;63889;50.596;8.690;2022-11-18T14:14:36;11.40;99.90
14170;DHT22;63889;50.596;8.690;2022-11-18T14:19:30;11.40;99.90
14170;DHT22;63889;50.596;8.690;2022-11-18T14:22:15;11.40;99.90
14170;DHT22;63889;50.596;8.690;2022-11-18T14:24:42;11.40;99.90
14170;DHT22;63889;50.596;8.690;2022-11-18T14:33:09;11.50;99.90
14170;DHT22;63889;50.596;8.690;2022-11-18T14:35:39;11.50;99.90
14170;DHT22;63889;50.596;8.690;2022-11-18T14:40:44;11.60;99.90
14170;DHT22;63889;50.596;8.690;2022-11-18T14:43:12;11.50;99.90
14170;DHT22;63889;50.596;8.690;2022-11-18T14:45:39;11.50;99.90
14170;DHT22;63889;50.596;8.690;2022-11-18T14:48:05;11.50;99.90
14170;DHT22;63889;50.596;8.690;2022-11-18T14:50:32;11.40;99.90
14170;DHT22;63889;50.596;8.690;2022-11-18T14:52:57;11.40;99.90
14170;DHT22;63889;50.596;8.690;2022-11-18T14:55:23;11.40;99.90
14170;DHT22;63889;50.596;8.690;2022-11-18T14:57:59;11.40;99.90
14170;DHT22;63889;50.596;8.690;2022-11-18T15:00:24;11.40;99.90
14170;DHT22;63889;50.596;8.690;2022-11-18T15:02:50;11.30;99.90
14170;DHT22;63889;50.596;8.690;2022-11-18T15:05:15;11.30;99.90
14170;DHT22;63889;50.596;8.690;2022-11-18T15:07:41;11.20;99.90
14170;DHT22;63889;50.596;8.690;2022-11-18T15:10:08;11.10;99.90
14170;DHT22;63889;50.596;8.690;2022-11-18T15:12:34;11.10;99.90
14170;DHT22;63889;50.596;8.690;2022-11-18T15:14:59;11.10;99.90
14170;DHT22;63889;50.596;8.690;2022-11-18T15:17:25;11.00;99.90
14170;DHT22;63889;50.596;8.690;2022-11-18T15:19:51;11.00;99.90
14170;DHT22;63889;50.596;8.690;2022-11-18T15:22:16;10.90;99.90
14170;DHT22;63889;50.596;8.690;2022-11-18T15:24:42;10.80;99.90
14170;DHT22;63889;50.596;8.690;2022-11-18T15:27:08;10.70;99.90
14170;DHT22;63889;50.596;8.690;2022-11-18T15:29:35;10.70;99.90
14170;DHT22;63889;50.596;8.690;2022-11-18T15:32:00;10.70;99.90
14170;DHT22;63889;50.596;8.690;2022-11-18T15:34:29;10.60;99.90
14170;DHT22;63889;50.596;8.690;2022-11-18T15:36:55;10.60;99.90
14170;DHT22;63889;50.596;8.690;2022-11-18T15:39:20;10.50;99.90
14170;DHT22;63889;50.596;8.690;2022-11-18T15:41:46;10.40;99.90
14170;DHT22;63889;50.596;8.690;2022-11-18T15:44:12;10.40;99.90
14170;DHT22;63889;50.596;8.690;2022-11-18T15:46:38;10.30;99.90
14170;DHT22;63889;50.596;8.690;2022-11-18T15:49:03;10.20;99.90
14170;DHT22;63889;50.596;8.690;2022-11-18T15:51:30;10.20;99.90
14170;DHT22;63889;50.596;8.690;2022-11-18T15:53:56;10.20;99.90
14170;DHT22;63889;50.596;8.690;2022-11-18T15:59:01;10.10;99.90
14170;DHT22;63889;50.596;8.690;2022-11-18T16:01:37;10.00;99.90
14170;DHT22;63889;50.596;8.690;2022-11-18T16:04:05;9.90;99.90
14170;DHT22;63889;50.596;8.690;2022-11-18T16:06:31;9.90;99.90
14170;DHT22;63889;50.596;8.690;2022-11-18T16:08:58;9.80;99.90
14170;DHT22;63889;50.596;8.690;2022-11-18T16:11:24;9.80;99.90
14170;DHT22;63889;50.596;8.690;2022-11-18T16:14:10;9.70;99.90
14170;DHT22;63889;50.596;8.690;2022-11-18T16:16:37;9.70;99.90
14170;DHT22;63889;50.596;8.690;2022-11-18T16:19:08;9.70;99.90
14170;DHT22;63889;50.596;8.690;2022-11-18T16:21:36;9.70;99.90
14170;DHT22;63889;50.596;8.690;2022-11-18T16:24:03;9.70;99.90
14170;DHT22;63889;50.596;8.690;2022-11-18T16:26:30;9.70;99.90
14170;DHT22;63889;50.596;8.690;2022-11-18T16:28:55;9.70;99.90
14170;DHT22;63889;50.596;8.690;2022-11-18T16:31:21;9.70;99.90
14170;DHT22;63889;50.596;8.690;2022-11-18T16:36:35;9.70;99.90
14170;DHT22;63889;50.596;8.690;2022-11-18T16:41:37;9.70;99.90
14170;DHT22;63889;50.596;8.690;2022-11-18T16:44:06;9.70;99.90
14170;DHT22;63889;50.596;8.690;2022-11-18T16:46:34;9.70;99.90
14170;DHT22;63889;50.596;8.690;2022-11-18T16:49:00;9.70;99.90
14170;DHT22;63889;50.596;8.690;2022-11-18T16:51:28;9.70;99.90
14170;DHT22;63889;50.596;8.690;2022-11-18T16:53:58;9.60;99.90
14170;DHT22;63889;50.596;8.690;2022-11-18T16:56:29;9.60;99.90
14170;DHT22;63889;50.596;8.690;2022-11-18T16:58:57;9.50;99.90
14170;DHT22;63889;50.596;8.690;2022-11-18T17:01:22;9.40;99.90
14170;DHT22;63889;50.596;8.690;2022-11-18T17:03:52;9.40;99.90
14170;DHT22;63889;50.596;8.690;2022-11-18T17:06:19;9.50;99.90
14170;DHT22;63889;50.596;8.690;2022-11-18T17:08:45;9.50;99.90
14170;DHT22;63889;50.596;8.690;2022-11-18T17:11:10;9.50;99.90
14170;DHT22;63889;50.596;8.690;2022-11-18T17:13:37;9.50;99.90
14170;DHT22;63889;50.596;8.690;2022-11-18T17:16:08;9.60;99.90
14170;DHT22;63889;50.596;8.690;2022-11-18T17:18:34;9.50;99.90
14170;DHT22;63889;50.596;8.690;2022-11-18T17:21:04;9.40;99.90
14170;DHT22;63889;50.596;8.690;2022-11-18T17:23:30;9.40;99.90
14170;DHT22;63889;50.596;8.690;2022-11-18T17:25:56;9.40;99.90
14170;DHT22;63889;50.596;8.690;2022-11-18T17:28:21;9.30;99.90
14170;DHT22;63889;50.596;8.690;2022-11-18T17:30:47;9.20;99.90
14170;DHT22;63889;50.596;8.690;2022-11-18T17:33:13;9.20;99.90
14170;DHT22;63889;50.596;8.690;2022-11-18T17:35:38;9.00;99.90
14170;DHT22;63889;50.596;8.690;2022-11-18T17:38:04;9.00;99.90
14170;DHT22;63889;50.596;8.690;2022-11-18T17:40:29;9.00;99.90
14170;DHT22;63889;50.596;8.690;2022-11-18T17:42:55;9.00;99.90
14170;DHT22;63889;50.596;8.690;2022-11-18T17:45:20;9.10;99.90